Time;durP1;ratioP1;P1;durP2;ratioP2;P2;SDS_P1;SDS_P2;PMS_P1;PMS_P2;Temp;Humidity;BMP_temperature;BMP_pressure;BME280_temperature;BME280_humidity;BME280_pressure;Samples;Min_cycle;Max_cycle;Signal;HPM_P1;HPM_P2
2023/08/09 00:00:53;;;;;;;8.65;3.25;;;;;;;;;;6223700;23;20236;-91
2023/08/09 00:03:59;;;;;;;6.15;3.38;;;;;;;;;;6231427;23;20191;-92
2023/08/09 00:07:04;;;;;;;5.93;3.30;;;;;;;;;;6232445;23;20235;-93
2023/08/09 00:10:10;;;;;;;5.10;3.35;;;;;;;;;;6231391;23;20174;-92
2023/08/09 00:13:17;;;;;;;7.22;3.47;;;;;;;;;;6229662;23;20183;-91
2023/08/09 00:16:22;;;;;;;9.70;3.40;;;;;;;;;;6232514;23;20208;-91
2023/08/09 00:19:27;;;;;;;8.43;3.45;;;;;;;;;;6228413;23;20618;-91
2023/08/09 00:22:33;;;;;;;6.13;3.17;;;;;;;;;;6231704;23;20167;-92
2023/08/09 00:25:38;;;;;;;8.95;3.53;;;;;;;;;;6230372;23;20168;-92
2023/08/09 00:28:45;;;;;;;7.55;3.78;;;;;;;;;;6231397;22;20215;-94
2023/08/09 00:31:50;;;;;;;7.28;3.33;;;;;;;;;;6248167;22;20183;-92
2023/08/09 00:34:56;;;;;;;7.38;3.33;;;;;;;;;;6229348;23;20183;-89
2023/08/09 00:38:01;;;;;;;9.18;3.45;;;;;;;;;;6231717;23;20163;-95
2023/08/09 00:41:06;;;;;;;6.63;3.00;;;;;;;;;;6232032;23;20236;-92
2023/08/09 00:44:13;;;;;;;5.15;2.90;;;;;;;;;;6234900;23;20199;-90
2023/08/09 00:47:20;;;;;;;6.82;3.08;;;;;;;;;;6234379;23;20210;-94
2023/08/09 00:50:27;;;;;;;9.80;3.30;;;;;;;;;;6234001;23;20159;-91
2023/08/09 00:53:34;;;;;;;8.45;3.10;;;;;;;;;;6232628;23;20235;-93
2023/08/09 00:56:39;;;;;;;8.20;3.42;;;;;;;;;;6234579;23;20215;-90
2023/08/09 00:59:47;;;;;;;8.95;3.40;;;;;;;;;;6233217;22;20202;-92
2023/08/09 01:02:52;;;;;;;9.88;3.30;;;;;;;;;;6217617;23;20166;-92
2023/08/09 01:06:00;;;;;;;7.47;3.40;;;;;;;;;;6218941;22;20175;-92
2023/08/09 01:09:09;;;;;;;6.00;3.50;;;;;;;;;;6217855;22;20215;-93
2023/08/09 01:12:16;;;;;;;11.15;3.40;;;;;;;;;;6217198;22;20164;-91
2023/08/09 01:15:25;;;;;;;8.38;3.53;;;;;;;;;;6219780;22;20151;-91
2023/08/09 01:18:30;;;;;;;8.20;3.67;;;;;;;;;;6219073;22;20167;-90
2023/08/09 01:21:37;;;;;;;9.18;3.20;;;;;;;;;;6218541;23;20163;-92
2023/08/09 01:24:45;;;;;;;13.65;3.70;;;;;;;;;;6220073;22;20215;-91
2023/08/09 01:27:51;;;;;;;7.65;3.25;;;;;;;;;;6218013;22;20159;-91
2023/08/09 01:30:57;;;;;;;6.85;3.40;;;;;;;;;;6218878;22;20168;-92
2023/08/09 01:34:02;;;;;;;10.15;3.83;;;;;;;;;;6219166;22;20238;-92
2023/08/09 01:37:12;;;;;;;10.88;3.40;;;;;;;;;;6220439;23;20241;-93
2023/08/09 01:40:22;;;;;;;7.68;3.00;;;;;;;;;;6220759;22;20175;-92
2023/08/09 01:43:28;;;;;;;9.23;3.05;;;;;;;;;;6219228;22;20172;-91
2023/08/09 01:46:33;;;;;;;8.15;3.30;;;;;;;;;;6220330;22;20151;-92
2023/08/09 01:49:45;;;;;;;6.72;3.47;;;;;;;;;;6218761;22;20167;-90
2023/08/09 01:53:00;;;;;;;6.45;3.03;;;;;;;;;;6218545;23;20147;-92
2023/08/09 02:17:13;;;;;;;6.82;3.30;;;;;;;;;;6213235;22;1377265;-91
2023/08/09 02:20:20;;;;;;;8.73;3.63;;;;;;;;;;6271026;22;20236;-91
2023/08/09 02:23:26;;;;;;;7.13;3.15;;;;;;;;;;6271759;22;20169;-90
2023/08/09 02:26:40;;;;;;;7.65;3.28;;;;;;;;;;6272765;22;20437;-92
2023/08/09 02:29:46;;;;;;;6.25;3.38;;;;;;;;;;6272753;22;20153;-92
2023/08/09 02:32:53;;;;;;;9.32;3.78;;;;;;;;;;6271812;22;20169;-91
2023/08/09 02:35:59;;;;;;;4.50;3.03;;;;;;;;;;6272085;22;20268;-90
2023/08/09 02:39:05;;;;;;;6.57;3.70;;;;;;;;;;6272589;22;20215;-93
2023/08/09 02:42:11;;;;;;;12.02;3.53;;;;;;;;;;6272432;22;20214;-91
2023/08/09 02:45:16;;;;;;;8.98;3.50;;;;;;;;;;6274452;22;20170;-91
2023/08/09 02:48:24;;;;;;;8.80;3.63;;;;;;;;;;6272271;22;20178;-92
2023/08/09 02:51:32;;;;;;;7.53;3.72;;;;;;;;;;6272723;22;20167;-92
2023/08/09 02:54:37;;;;;;;7.60;3.70;;;;;;;;;;6273794;22;20174;-91
2023/08/09 02:57:43;;;;;;;10.15;3.47;;;;;;;;;;6271991;22;20221;-91
2023/08/09 03:00:48;;;;;;;8.50;3.83;;;;;;;;;;6274374;22;20167;-91
2023/08/09 03:03:55;;;;;;;9.25;3.22;;;;;;;;;;6271345;22;20166;-90
2023/08/09 03:07:00;;;;;;;11.40;3.80;;;;;;;;;;6266834;23;20214;-93
2023/08/09 03:10:06;;;;;;;5.40;3.22;;;;;;;;;;6264366;22;20203;-92
2023/08/09 03:13:11;;;;;;;6.80;3.25;;;;;;;;;;6264794;22;20185;-89
2023/08/09 03:16:18;;;;;;;8.75;3.50;;;;;;;;;;6277996;22;20213;-92
2023/08/09 03:19:25;;;;;;;7.50;3.65;;;;;;;;;;6277650;22;20153;-92
2023/08/09 03:22:31;;;;;;;6.68;3.47;;;;;;;;;;6278410;22;20150;-93
2023/08/09 03:25:37;;;;;;;6.40;3.75;;;;;;;;;;6278773;22;20489;-91
2023/08/09 03:28:44;;;;;;;10.88;3.33;;;;;;;;;;6279314;22;20157;-92
2023/08/09 13:33:34;;;;;;;0.55;0.30;;;;;;;;;;6263459;22;20193;-90
2023/08/09 13:36:42;;;;;;;0.50;0.50;;;;;;;;;;6296987;22;20265;-89
2023/08/09 13:39:51;;;;;;;0.47;0.47;;;;;;;;;;6298340;22;20565;-90
2023/08/09 13:42:57;;;;;;;0.60;0.60;;;;;;;;;;6296866;22;20269;-91
2023/08/09 13:46:04;;;;;;;0.45;0.40;;;;;;;;;;6295448;22;20217;-91
2023/08/09 13:49:10;;;;;;;2.95;0.98;;;;;;;;;;6297617;22;20162;-90
2023/08/09 13:52:18;;;;;;;0.50;0.50;;;;;;;;;;6296901;22;20157;-91
2023/08/09 13:55:23;;;;;;;0.40;0.40;;;;;;;;;;6296085;22;20193;-93
2023/08/09 13:58:30;;;;;;;0.30;0.30;;;;;;;;;;6315120;22;20244;-91
2023/08/09 14:01:37;;;;;;;0.35;0.35;;;;;;;;;;6297270;22;20165;-91
2023/08/09 14:04:43;;;;;;;0.43;0.43;;;;;;;;;;6295707;22;20224;-91
2023/08/09 14:07:51;;;;;;;0.65;0.65;;;;;;;;;;6298149;22;20173;-91
2023/08/09 22:26:43;;;;;;;0.50;0.50;;;;;;;;;;6300988;22;20178;-91
2023/08/09 22:29:48;;;;;;;1.20;1.10;;;;;;;;;;6279219;22;20609;-91
2023/08/09 22:32:55;;;;;;;1.20;0.63;;;;;;;;;;6278937;22;20189;-90
2023/08/09 22:36:01;;;;;;;0.80;0.80;;;;;;;;;;6279292;22;20637;-90
2023/08/09 22:39:07;;;;;;;0.68;0.68;;;;;;;;;;6278875;22;20166;-91
2023/08/09 22:42:14;;;;;;;0.68;0.68;;;;;;;;;;6280042;22;20195;-90
2023/08/09 22:45:19;;;;;;;0.75;0.70;;;;;;;;;;6279344;22;20238;-90
2023/08/09 22:48:26;;;;;;;0.35;0.35;;;;;;;;;;6278396;22;20166;-90
2023/08/09 22:51:37;;;;;;;0.85;0.85;;;;;;;;;;6279553;22;20215;-90
2023/08/09 22:55:01;;;;;;;0.28;0.28;;;;;;;;;;6278821;22;20189;-91
2023/08/09 22:58:09;;;;;;;1.60;0.85;;;;;;;;;;6278847;22;20213;-90
2023/08/09 23:01:14;;;;;;;1.55;0.85;;;;;;;;;;6278666;22;20217;-90
2023/08/09 23:04:20;;;;;;;0.30;0.30;;;;;;;;;;6277897;22;20215;-90
2023/08/09 23:07:25;;;;;;;1.77;1.13;;;;;;;;;;6277884;22;20178;-90
2023/08/09 23:10:31;;;;;;;1.83;1.35;;;;;;;;;;6278492;22;20173;-90
2023/08/09 23:13:39;;;;;;;0.40;0.40;;;;;;;;;;6278871;22;20166;-90
2023/08/09 23:16:45;;;;;;;1.05;1.00;;;;;;;;;;6279120;22;20236;-90
2023/08/09 23:19:50;;;;;;;0.43;0.43;;;;;;;;;;6279918;22;20150;-90
2023/08/09 23:22:59;;;;;;;1.20;1.08;;;;;;;;;;6279026;22;20189;-90
2023/08/09 23:26:05;;;;;;;0.50;0.50;;;;;;;;;;6277523;22;20192;-90
2023/08/09 23:29:12;;;;;;;1.05;0.93;;;;;;;;;;6277725;22;20509;-89
2023/08/09 23:32:18;;;;;;;0.47;0.47;;;;;;;;;;6278261;22;20184;-90
2023/08/09 23:35:23;;;;;;;0.70;0.70;;;;;;;;;;6278228;22;20193;-90
2023/08/09 23:38:29;;;;;;;0.43;0.43;;;;;;;;;;6277960;22;20165;-89
2023/08/09 23:41:36;;;;;;;0.77;0.77;;;;;;;;;;6277999;22;20166;-90
2023/08/09 23:44:43;;;;;;;0.50;0.50;;;;;;;;;;6278448;22;20216;-90
2023/08/09 23:47:50;;;;;;;0.45;0.45;;;;;;;;;;6277898;22;20170;-90
2023/08/09 23:50:56;;;;;;;1.75;1.60;;;;;;;;;;6278435;22;20186;-91
2023/08/09 23:54:02;;;;;;;0.50;0.50;;;;;;;;;;6278128;22;20212;-88
2023/08/09 23:57:07;;;;;;;5.50;1.13;;;;;;;;;;6278305;22;20239;-90
